Taxiarchis S — SY6961 — position and weather

sailwx.info

Track history (hours):
 
Tides and Currents Weather Stations Pressure Air Temp Water Temp Dewpoint Dewpoint Depression Visibility Wind Speed Wind Dir Waves Ship Positions

Taxiarchis S

Last reported at 2017-Sep-21 20:10 UTC. Time now 2017-Sep-22 17:25 UTC.
Position N 37°06' E 025°43'.

Length 77 m; draft 5 m.

Type: Cargo ship. MMSI: 237989800.

Date/timePositionNaut miles runAvg speedWind from/ knotsBaromVisibWave heightAir tempDewpointWater temp
2017-Sep-21 20:10N 37°06' E 025°43'211.5
2017-Sep-21 20:00N 37°07' E 025°42'1011.4
2017-Sep-21 19:05N 37°13' E 025°31'110.9
2017-Sep-21 19:00N 37°14' E 025°30'511.0
2017-Sep-21 18:30N 37°15' E 025°23'611.1
2017-Sep-21 18:00N 37°17' E 025°17'611.3
2017-Sep-21 17:30N 37°20' E 025°11'611.3
2017-Sep-21 17:00N 37°24' E 025°05'611.2
2017-Sep-21 16:30N 37°26' E 024°59'2 0.1
2017-Sep-21 04:26N 37°26' E 024°57'2 4.6
2017-Sep-21 04:00N 37°28' E 024°58'6 9.2
2017-Sep-21 03:23N 37°33' E 024°53'410.0
2017-Sep-21 03:00N 37°35' E 024°50'  
2017-Sep-16 08:25N 39°40' E 024°07'3410.5
2017-Sep-16 05:09N 40°03' E 024°41'210.6
2017-Sep-16 04:59N 40°04' E 024°42'610.7
2017-Sep-16 04:28N 40°07' E 024°48'610.6
2017-Sep-16 03:55N 40°11' E 024°54'1510.5
2017-Sep-16 02:27N 40°21' E 025°09'610.9
2017-Sep-16 01:55N 40°24' E 025°15'1910.8
2017-Sep-16 00:11N 40°36' E 025°35'1810.3
2017-Sep-15 22:27N 40°48' E 025°52'9 0.9
2017-Sep-15 12:06N 40°42' E 025°43'310.9
2017-Sep-15 11:50N 40°40' E 025°40'410.9
2017-Sep-15 11:30N 40°38' E 025°36'610.6
2017-Sep-15 10:56N 40°34' E 025°31'410.0
2017-Sep-15 10:30N 40°31' E 025°27'5 9.4
2017-Sep-15 10:00N 40°27' E 025°23'5 9.9
2017-Sep-15 09:27N 40°22' E 025°19'510.5
2017-Sep-15 08:59N 40°18' E 025°16'610.5
2017-Sep-15 08:26N 40°13' E 025°13'  
2017-Sep-12 17:19N 38°04' E 024°11'  
Track history (hours):
 
Tides and Currents Weather Stations Pressure Air Temp Water Temp Dewpoint Dewpoint Depression Visibility Wind Speed Wind Dir Waves Ship Positions

Taxiarchis S

Last reported at 2017-Sep-21 20:10 UTC. Time now 2017-Sep-22 17:25 UTC.
Position N 37°06' E 025°43'.

Length 77 m; draft 5 m.

Type: Cargo ship. MMSI: 237989800.

Date/timePositionNaut miles runAvg speedWind from/ knotsBaromVisibWave heightAir tempDewpointWater temp
2017-Sep-21 20:10N 37°06' E 025°43'211.5
2017-Sep-21 20:00N 37°07' E 025°42'1011.4
2017-Sep-21 19:05N 37°13' E 025°31'110.9
2017-Sep-21 19:00N 37°14' E 025°30'511.0
2017-Sep-21 18:30N 37°15' E 025°23'611.1
2017-Sep-21 18:00N 37°17' E 025°17'611.3
2017-Sep-21 17:30N 37°20' E 025°11'611.3
2017-Sep-21 17:00N 37°24' E 025°05'611.2
2017-Sep-21 16:30N 37°26' E 024°59'2 0.1
2017-Sep-21 04:26N 37°26' E 024°57'2 4.6
2017-Sep-21 04:00N 37°28' E 024°58'6 9.2
2017-Sep-21 03:23N 37°33' E 024°53'410.0
2017-Sep-21 03:00N 37°35' E 024°50'  
2017-Sep-16 08:25N 39°40' E 024°07'3410.5
2017-Sep-16 05:09N 40°03' E 024°41'210.6
2017-Sep-16 04:59N 40°04' E 024°42'610.7
2017-Sep-16 04:28N 40°07' E 024°48'610.6
2017-Sep-16 03:55N 40°11' E 024°54'1510.5
2017-Sep-16 02:27N 40°21' E 025°09'610.9
2017-Sep-16 01:55N 40°24' E 025°15'1910.8
2017-Sep-16 00:11N 40°36' E 025°35'1810.3
2017-Sep-15 22:27N 40°48' E 025°52'9 0.9
2017-Sep-15 12:06N 40°42' E 025°43'310.9
2017-Sep-15 11:50N 40°40' E 025°40'410.9
2017-Sep-15 11:30N 40°38' E 025°36'610.6
2017-Sep-15 10:56N 40°34' E 025°31'410.0
2017-Sep-15 10:30N 40°31' E 025°27'5 9.4
2017-Sep-15 10:00N 40°27' E 025°23'5 9.9
2017-Sep-15 09:27N 40°22' E 025°19'510.5
2017-Sep-15 08:59N 40°18' E 025°16'610.5
2017-Sep-15 08:26N 40°13' E 025°13'  
2017-Sep-12 17:19N 38°04' E 024°11'  

Dump ship's entire track history